Time;durP1;ratioP1;P1;durP2;ratioP2;P2;SDS_P1;SDS_P2;PMS_P1;PMS_P2;Temp;Humidity;BMP_temperature;BMP_pressure;BME280_temperature;BME280_humidity;BME280_pressure;Samples;Min_cycle;Max_cycle;Signal;HPM_P1;HPM_P2
2023/03/30 00:00:32;;;;;;;0.90;0.80;;;18.10;43.50;;;;;;5010164;28;21017;-59
2023/03/30 00:03:01;;;;;;;1.17;1.07;;;18.10;43.50;;;;;;5012345;28;20446;-68
2023/03/30 00:05:30;;;;;;;1.20;0.97;;;18.10;43.60;;;;;;5018446;28;20294;-60
2023/03/30 00:07:56;;;;;;;1.10;1.00;;;18.10;43.50;;;;;;5008121;28;20453;-67
2023/03/30 00:10:22;;;;;;;1.70;1.00;;;18.20;43.60;;;;;;5013424;28;20456;-67
2023/03/30 00:12:51;;;;;;;0.87;0.83;;;18.10;43.50;;;;;;5013995;28;20463;-67
2023/03/30 00:15:20;;;;;;;1.20;1.10;;;18.20;43.60;;;;;;5010919;28;20442;-68
2023/03/30 00:17:46;;;;;;;0.90;0.90;;;18.10;43.60;;;;;;5011089;28;20442;-61
2023/03/30 00:20:13;;;;;;;0.90;0.90;;;18.20;43.60;;;;;;5018718;28;20431;-62
2023/03/30 00:22:40;;;;;;;1.30;1.17;;;18.10;43.60;;;;;;5009717;28;20220;-62
2023/03/30 00:25:07;;;;;;;0.97;0.90;;;18.10;43.60;;;;;;5013777;28;20441;-65
2023/03/30 00:27:34;;;;;;;0.97;0.87;;;18.10;43.60;;;;;;5004221;28;20898;-61
2023/03/30 00:29:59;;;;;;;1.13;1.03;;;18.10;43.60;;;;;;5013257;28;20786;-69
2023/03/30 00:32:25;;;;;;;1.03;1.03;;;18.10;43.60;;;;;;5008914;28;20512;-60
2023/03/30 00:34:50;;;;;;;2.50;1.13;;;18.10;43.60;;;;;;5015879;28;20680;-61
2023/03/30 00:37:16;;;;;;;1.10;1.00;;;18.10;43.70;;;;;;5014971;28;20660;-64
2023/03/30 00:39:43;;;;;;;1.20;1.10;;;18.10;43.60;;;;;;5016124;28;20226;-67
2023/03/30 00:42:20;;;;;;;1.30;1.20;;;18.10;43.60;;;;;;5008365;28;20227;-62
2023/03/30 00:45:27;;;;;;;1.07;1.00;;;18.10;43.60;;;;;;5015199;28;20418;-61
2023/03/30 00:48:05;;;;;;;1.67;1.00;;;18.10;43.60;;;;;;4957030;28;20907;-59
2023/03/30 00:50:43;;;;;;;1.13;1.03;;;18.10;43.60;;;;;;5010349;28;20491;-60
2023/03/30 00:53:17;;;;;;;0.90;0.90;;;18.10;43.70;;;;;;5008808;28;20561;-64
2023/03/30 00:55:45;;;;;;;1.30;1.10;;;18.10;43.60;;;;;;5014152;28;20431;-61
2023/03/30 00:58:14;;;;;;;1.20;1.10;;;18.10;43.70;;;;;;5014559;28;20446;-66
2023/03/30 01:00:42;;;;;;;1.10;1.00;;;18.10;43.60;;;;;;5012667;28;20904;-70
2023/03/30 01:03:15;;;;;;;0.90;0.90;;;18.10;43.70;;;;;;5009578;28;20460;-60
2023/03/30 01:05:43;;;;;;;1.03;0.90;;;18.10;43.70;;;;;;5030281;28;20461;-69
2023/03/30 01:08:12;;;;;;;1.00;0.90;;;18.10;43.70;;;;;;5013324;28;20509;-58
2023/03/30 01:10:38;;;;;;;1.53;1.43;;;18.10;43.70;;;;;;5011054;28;20471;-67
2023/03/30 01:13:04;;;;;;;1.93;1.07;;;18.10;43.70;;;;;;5013232;28;20935;-64
2023/03/30 01:15:33;;;;;;;1.10;1.00;;;18.10;43.70;;;;;;5013821;28;20471;-59
2023/03/30 01:18:07;;;;;;;3.47;1.10;;;18.10;43.70;;;;;;5010838;28;21184;-60
2023/03/30 01:20:46;;;;;;;0.80;0.80;;;18.10;43.70;;;;;;5010774;28;20495;-62
2023/03/30 01:23:26;;;;;;;1.10;1.00;;;18.10;43.70;;;;;;5013334;28;20509;-64
2023/03/30 01:25:55;;;;;;;1.20;1.10;;;18.10;43.70;;;;;;5010631;28;20439;-61
2023/03/30 01:28:24;;;;;;;0.90;0.90;;;18.10;43.70;;;;;;5007992;28;20852;-69
2023/03/30 01:31:17;;;;;;;1.20;1.10;;;18.10;43.80;;;;;;5011029;28;20427;-67
2023/03/30 01:34:00;;;;;;;1.17;1.07;;;18.10;43.80;;;;;;5011278;28;20479;-63
2023/03/30 01:36:31;;;;;;;1.73;1.00;;;18.10;43.70;;;;;;5008510;28;20972;-67
2023/03/30 01:39:19;;;;;;;1.37;1.07;;;18.10;43.80;;;;;;5010947;28;20577;-62
2023/03/30 01:42:05;;;;;;;1.10;1.00;;;18.10;43.80;;;;;;5012171;28;21071;-61
2023/03/30 01:44:50;;;;;;;1.23;1.13;;;18.10;43.80;;;;;;5012564;28;20462;-62
2023/03/30 01:47:32;;;;;;;1.17;1.03;;;18.10;43.80;;;;;;5011259;28;20444;-70
2023/03/30 01:50:01;;;;;;;1.10;1.00;;;18.10;43.80;;;;;;5012191;28;20879;-64
2023/03/30 01:52:37;;;;;;;1.10;1.00;;;18.10;43.80;;;;;;5015372;28;20480;-61
2023/03/30 01:55:23;;;;;;;0.90;0.90;;;18.10;43.80;;;;;;5011722;28;20448;-58
2023/03/30 01:58:02;;;;;;;1.00;0.90;;;18.10;43.70;;;;;;5011282;28;20501;-63
2023/03/30 02:00:29;;;;;;;0.90;0.90;;;18.10;43.80;;;;;;5013451;28;20812;-59
2023/03/30 02:03:00;;;;;;;1.20;1.00;;;18.10;43.80;;;;;;5010780;28;20465;-63
2023/03/30 02:05:27;;;;;;;0.93;0.93;;;18.10;43.90;;;;;;5013730;28;20489;-61
2023/03/30 02:07:57;;;;;;;1.13;1.03;;;18.10;43.80;;;;;;5015068;28;20457;-59
2023/03/30 02:10:27;;;;;;;1.10;0.97;;;18.10;44.60;;;;;;5012900;28;20452;-64
2023/03/30 02:12:56;;;;;;;1.10;1.00;;;18.10;43.80;;;;;;5011649;28;21277;-63
2023/03/30 02:15:25;;;;;;;1.07;0.97;;;18.10;43.90;;;;;;5015873;28;20459;-64
2023/03/30 02:17:50;;;;;;;1.00;0.90;;;18.10;43.80;;;;;;5013518;28;20466;-60
2023/03/30 02:20:17;;;;;;;1.20;1.10;;;18.10;43.80;;;;;;5010270;28;20537;-59
2023/03/30 02:22:44;;;;;;;1.27;1.17;;;18.10;43.90;;;;;;5011136;28;20658;-62
2023/03/30 02:25:11;;;;;;;1.10;1.00;;;18.10;43.90;;;;;;5015196;28;20936;-64
2023/03/30 02:27:37;;;;;;;1.00;0.90;;;18.10;43.80;;;;;;5013750;28;20435;-68
2023/03/30 02:30:06;;;;;;;1.00;0.83;;;18.10;43.90;;;;;;5012365;28;20477;-58
2023/03/30 02:32:39;;;;;;;1.40;1.30;;;18.10;43.80;;;;;;5014614;28;20873;-62
2023/03/30 02:35:48;;;;;;;1.20;1.10;;;18.10;43.80;;;;;;5011989;28;20434;-61
2023/03/30 02:38:34;;;;;;;1.00;1.00;;;18.10;43.90;;;;;;5012925;28;20471;-64
2023/03/30 02:41:28;;;;;;;1.20;1.10;;;18.10;43.80;;;;;;5011166;28;20436;-65
2023/03/30 02:44:19;;;;;;;1.03;0.93;;;18.10;43.90;;;;;;5008153;28;20438;-71
2023/03/30 02:47:03;;;;;;;1.53;1.43;;;18.10;43.90;;;;;;5013804;28;20452;-65
2023/03/30 02:49:50;;;;;;;1.00;0.90;;;18.10;43.90;;;;;;5012540;28;20755;-67
2023/03/30 02:52:38;;;;;;;1.20;1.10;;;18.10;43.90;;;;;;5012895;28;20513;-58
2023/03/30 02:55:17;;;;;;;1.33;1.00;;;18.10;43.90;;;;;;5011678;28;20857;-63
2023/03/30 02:57:53;;;;;;;0.90;0.90;;;18.10;43.90;;;;;;5011138;28;20486;-66
2023/03/30 03:00:27;;;;;;;3.03;1.10;;;18.10;44.00;;;;;;5011878;28;20800;-71
2023/03/30 03:02:58;;;;;;;0.93;0.90;;;18.10;43.90;;;;;;5013931;28;20449;-58
2023/03/30 03:05:25;;;;;;;1.20;1.13;;;18.10;44.00;;;;;;5017671;28;20878;-62
2023/03/30 03:07:51;;;;;;;1.13;1.07;;;18.10;44.00;;;;;;5011495;28;20506;-60
2023/03/30 03:10:17;;;;;;;1.00;0.90;;;18.10;44.00;;;;;;5012009;28;20580;-58
2023/03/30 03:12:43;;;;;;;1.00;0.90;;;18.10;44.00;;;;;;5011376;28;20238;-65
2023/03/30 03:15:10;;;;;;;0.87;0.87;;;18.10;44.00;;;;;;5014345;28;20215;-61
2023/03/30 03:17:35;;;;;;;1.20;1.10;;;18.10;44.00;;;;;;5011541;28;20521;-66
2023/03/30 03:20:03;;;;;;;1.00;0.90;;;18.10;44.10;;;;;;5017361;28;20466;-70
2023/03/30 03:22:29;;;;;;;0.90;0.90;;;18.10;44.00;;;;;;5019703;28;20227;-62
2023/03/30 03:24:54;;;;;;;0.80;0.80;;;18.10;44.00;;;;;;5015945;28;20514;-64
2023/03/30 03:27:20;;;;;;;1.40;1.30;;;18.10;44.00;;;;;;5017274;28;20448;-60
2023/03/30 03:29:46;;;;;;;0.93;0.90;;;18.10;44.00;;;;;;5019326;28;20230;-59
2023/03/30 03:32:12;;;;;;;0.90;0.90;;;18.10;44.00;;;;;;5018789;28;20227;-68
2023/03/30 03:34:38;;;;;;;0.80;0.80;;;18.10;44.10;;;;;;5015369;28;20777;-60
2023/03/30 03:37:04;;;;;;;1.07;0.97;;;18.10;44.00;;;;;;5015597;28;20235;-59
2023/03/30 03:39:30;;;;;;;1.20;0.93;;;18.10;44.00;;;;;;5019824;28;20435;-59
2023/03/30 03:41:56;;;;;;;0.80;0.80;;;18.10;44.00;;;;;;5014291;28;20237;-60
2023/03/30 03:44:21;;;;;;;1.10;1.00;;;18.10;44.00;;;;;;5015820;28;20632;-60
2023/03/30 03:46:47;;;;;;;0.80;0.80;;;18.10;44.00;;;;;;5015331;28;20222;-59
2023/03/30 03:49:12;;;;;;;0.90;0.90;;;18.10;44.10;;;;;;5019003;28;20237;-59
2023/03/30 03:51:38;;;;;;;1.17;1.10;;;18.10;44.00;;;;;;5016597;28;20830;-60
2023/03/30 03:54:04;;;;;;;1.10;1.00;;;18.10;44.00;;;;;;5013919;28;20231;-59
2023/03/30 03:56:30;;;;;;;1.17;1.07;;;18.10;44.00;;;;;;5019267;28;20761;-59
2023/03/30 03:58:55;;;;;;;0.93;0.83;;;18.10;44.10;;;;;;5017944;28;20449;-62
2023/03/30 04:01:21;;;;;;;1.10;1.00;;;18.10;44.10;;;;;;5014183;28;20249;-62
2023/03/30 04:03:46;;;;;;;1.00;0.90;;;18.10;44.00;;;;;;5016892;28;20232;-58
2023/03/30 04:06:12;;;;;;;1.20;1.10;;;18.10;44.10;;;;;;5015455;28;20222;-58
2023/03/30 04:08:38;;;;;;;1.00;0.90;;;18.10;44.00;;;;;;5014795;28;20223;-70
2023/03/30 04:11:06;;;;;;;1.00;0.80;;;18.10;44.10;;;;;;5015376;28;20456;-62
2023/03/30 04:13:33;;;;;;;0.87;0.87;;;18.10;44.10;;;;;;5005839;28;21233;-70
2023/03/30 04:15:59;;;;;;;0.90;0.90;;;18.10;44.10;;;;;;5013036;28;20452;-65
2023/03/30 04:18:30;;;;;;;1.07;0.97;;;18.10;44.00;;;;;;5007955;28;20682;-65
2023/03/30 04:20:58;;;;;;;1.10;1.00;;;18.20;44.10;;;;;;5019075;28;20511;-59
2023/03/30 04:23:24;;;;;;;0.90;0.90;;;18.20;44.00;;;;;;5015081;28;20476;-63
2023/03/30 04:25:50;;;;;;;1.47;1.37;;;18.20;44.00;;;;;;5011708;28;22632;-64
2023/03/30 04:28:20;;;;;;;1.03;0.93;;;18.20;44.00;;;;;;5007070;28;20464;-58
2023/03/30 04:30:46;;;;;;;2.80;0.80;;;18.20;43.80;;;;;;5007122;28;20513;-62
2023/03/30 04:33:13;;;;;;;1.27;1.17;;;18.20;43.80;;;;;;5004415;28;20476;-60
2023/03/30 04:35:39;;;;;;;0.97;0.90;;;18.20;43.90;;;;;;5009530;28;20285;-72
2023/03/30 04:38:05;;;;;;;1.00;0.90;;;18.20;43.90;;;;;;5007876;28;20467;-61
2023/03/30 04:40:30;;;;;;;0.80;0.80;;;18.20;43.90;;;;;;5018521;28;20838;-68
2023/03/30 04:43:01;;;;;;;0.90;0.90;;;18.20;43.90;;;;;;5012309;28;20349;-59
2023/03/30 04:45:27;;;;;;;1.03;1.00;;;18.20;43.90;;;;;;5012232;28;20227;-62
2023/03/30 04:47:52;;;;;;;0.93;0.83;;;18.20;44.00;;;;;;5016894;28;20425;-61
2023/03/30 04:50:18;;;;;;;1.00;0.73;;;18.20;43.90;;;;;;5013393;28;20242;-63
2023/03/30 04:52:44;;;;;;;2.00;1.03;;;18.20;43.90;;;;;;5009607;28;20232;-64
2023/03/30 04:55:10;;;;;;;1.60;1.10;;;18.20;44.00;;;;;;5014738;28;20310;-59
2023/03/30 04:57:36;;;;;;;1.90;0.87;;;18.20;43.90;;;;;;5013577;28;20226;-64
2023/03/30 05:00:05;;;;;;;1.00;0.90;;;18.20;44.00;;;;;;5006846;28;20439;-58
2023/03/30 05:02:31;;;;;;;2.13;1.17;;;18.20;44.00;;;;;;5009949;28;20281;-60
2023/03/30 05:04:56;;;;;;;1.13;1.03;;;18.20;44.00;;;;;;5019704;28;20438;-67
2023/03/30 05:07:22;;;;;;;1.10;1.00;;;18.20;44.00;;;;;;5011237;28;20223;-63
2023/03/30 05:09:47;;;;;;;1.83;1.00;;;18.20;44.00;;;;;;5014128;28;20223;-66
2023/03/30 05:12:15;;;;;;;1.00;0.90;;;18.20;44.00;;;;;;5011823;28;20229;-63
2023/03/30 05:14:41;;;;;;;0.73;0.70;;;18.20;44.00;;;;;;5012421;28;20234;-59
2023/03/30 05:17:07;;;;;;;1.50;1.00;;;18.20;44.00;;;;;;5002063;28;20443;-69
2023/03/30 05:19:33;;;;;;;1.00;0.90;;;18.20;43.90;;;;;;5007068;28;20460;-60
2023/03/30 05:21:59;;;;;;;2.03;0.83;;;18.20;43.80;;;;;;5008145;28;20439;-66
2023/03/30 05:24:25;;;;;;;1.13;0.80;;;18.20;43.90;;;;;;5013639;28;20919;-61
2023/03/30 05:26:51;;;;;;;1.70;1.00;;;18.30;43.90;;;;;;5013262;28;20514;-65
2023/03/30 05:29:16;;;;;;;1.40;1.30;;;18.30;44.00;;;;;;5012471;28;20303;-65
2023/03/30 05:31:41;;;;;;;1.23;1.13;;;18.30;44.00;;;;;;5016462;28;20322;-67
2023/03/30 05:34:07;;;;;;;2.17;1.17;;;18.20;44.00;;;;;;5014927;28;20230;-70
2023/03/30 05:36:34;;;;;;;1.20;1.10;;;18.20;43.90;;;;;;5014205;28;20727;-64
2023/03/30 05:39:00;;;;;;;1.10;0.90;;;18.30;44.00;;;;;;5017548;28;20238;-63
2023/03/30 05:41:27;;;;;;;4.53;1.00;;;18.30;44.00;;;;;;5015471;28;21224;-67
2023/03/30 05:43:52;;;;;;;1.40;1.30;;;18.20;44.00;;;;;;5016915;28;20428;-62
2023/03/30 05:46:18;;;;;;;0.80;0.80;;;18.20;44.00;;;;;;5015180;28;20450;-60
2023/03/30 05:48:44;;;;;;;1.60;1.20;;;18.20;44.10;;;;;;5013626;28;20238;-62
2023/03/30 05:51:10;;;;;;;1.47;1.00;;;18.20;44.00;;;;;;5021335;28;21112;-59
2023/03/30 05:53:36;;;;;;;1.10;1.00;;;18.20;44.00;;;;;;5013190;28;20266;-63
2023/03/30 05:56:02;;;;;;;1.30;1.20;;;18.20;44.00;;;;;;5015525;28;21287;-63
2023/03/30 05:58:27;;;;;;;1.67;1.57;;;18.20;44.00;;;;;;5015930;28;20465;-65
2023/03/30 06:00:57;;;;;;;1.10;1.00;;;18.20;44.00;;;;;;5012465;28;20240;-59
2023/03/30 06:03:22;;;;;;;1.20;1.10;;;18.20;44.00;;;;;;5031076;28;20580;-64
2023/03/30 06:05:48;;;;;;;1.27;1.17;;;18.20;44.10;;;;;;5016479;28;20487;-58
2023/03/30 06:08:14;;;;;;;1.10;1.00;;;18.20;44.00;;;;;;5014258;28;20226;-62
2023/03/30 06:10:39;;;;;;;1.00;0.90;;;18.20;44.00;;;;;;5015610;28;20552;-61
2023/03/30 06:13:05;;;;;;;1.07;0.97;;;18.20;44.10;;;;;;5012196;28;20242;-59
2023/03/30 06:15:31;;;;;;;1.30;1.10;;;18.20;44.10;;;;;;5011525;28;20248;-66
2023/03/30 06:17:58;;;;;;;1.27;1.17;;;18.20;44.10;;;;;;5014166;28;20227;-61
2023/03/30 06:20:25;;;;;;;1.20;1.03;;;18.20;44.10;;;;;;5009878;28;20426;-62
2023/03/30 06:22:51;;;;;;;1.13;1.00;;;18.20;44.10;;;;;;5013779;28;20510;-61
2023/03/30 06:25:19;;;;;;;0.83;0.80;;;18.20;44.10;;;;;;5013104;28;20458;-61
2023/03/30 06:27:46;;;;;;;0.80;0.80;;;18.20;44.10;;;;;;5013858;28;20450;-59
2023/03/30 06:30:12;;;;;;;1.60;1.10;;;18.20;44.10;;;;;;5012765;28;20424;-59
2023/03/30 06:32:38;;;;;;;1.67;1.17;;;18.20;44.10;;;;;;5014408;28;20479;-66
2023/03/30 06:35:04;;;;;;;1.53;0.90;;;18.20;44.10;;;;;;5017225;28;21022;-61
2023/03/30 06:37:31;;;;;;;1.20;1.10;;;18.20;44.10;;;;;;5016852;28;20258;-71
2023/03/30 06:39:56;;;;;;;1.20;1.10;;;18.20;44.10;;;;;;5016150;28;20517;-61
2023/03/30 06:42:22;;;;;;;1.73;1.10;;;18.20;44.10;;;;;;5014155;28;20533;-64
2023/03/30 06:44:48;;;;;;;1.20;1.10;;;18.20;44.10;;;;;;5017909;28;21082;-59
2023/03/30 06:47:13;;;;;;;1.10;1.00;;;18.20;44.20;;;;;;5015962;28;20232;-61
2023/03/30 06:49:39;;;;;;;1.10;1.00;;;18.20;44.10;;;;;;5018708;28;23126;-58
2023/03/30 06:52:05;;;;;;;1.87;0.90;;;18.20;44.20;;;;;;5015563;28;20215;-59
2023/03/30 06:54:31;;;;;;;0.87;0.83;;;18.20;44.10;;;;;;5019282;28;20284;-65
2023/03/30 06:56:56;;;;;;;2.50;1.00;;;18.20;44.20;;;;;;5015910;28;20219;-64
2023/03/30 06:59:22;;;;;;;1.20;0.90;;;18.20;44.10;;;;;;5024533;28;20218;-60
2023/03/30 07:01:47;;;;;;;1.10;1.03;;;18.20;44.10;;;;;;5012039;28;20227;-58
2023/03/30 07:04:13;;;;;;;1.57;1.10;;;18.20;44.10;;;;;;5023904;28;20687;-71
2023/03/30 07:06:38;;;;;;;1.53;0.90;;;18.20;44.10;;;;;;5019544;28;20706;-64
2023/03/30 07:09:06;;;;;;;1.10;1.00;;;18.20;44.10;;;;;;5017818;28;20218;-59
2023/03/30 07:11:32;;;;;;;0.80;0.70;;;18.20;44.20;;;;;;5019283;28;20310;-69
2023/03/30 07:14:00;;;;;;;1.20;0.90;;;18.20;44.10;;;;;;5021632;28;20446;-64
2023/03/30 07:16:25;;;;;;;1.17;1.07;;;18.20;44.20;;;;;;5017772;28;20230;-69
2023/03/30 07:18:51;;;;;;;1.20;1.10;;;18.20;44.10;;;;;;5021200;28;20427;-58
2023/03/30 07:21:17;;;;;;;2.87;1.10;;;18.20;44.10;;;;;;5020906;28;20721;-60
2023/03/30 07:23:43;;;;;;;1.23;1.13;;;18.20;44.10;;;;;;5020228;28;20234;-59
2023/03/30 07:26:09;;;;;;;1.67;1.00;;;18.20;44.10;;;;;;5020304;28;20495;-59
2023/03/30 07:28:37;;;;;;;2.10;1.40;;;18.20;44.10;;;;;;5020520;28;20442;-59
2023/03/30 07:31:04;;;;;;;0.80;0.80;;;18.20;44.20;;;;;;5017876;28;20208;-59
2023/03/30 07:33:30;;;;;;;1.80;1.10;;;18.20;44.10;;;;;;5016560;28;20957;-59
2023/03/30 07:35:56;;;;;;;1.30;1.10;;;18.20;44.10;;;;;;5017705;28;20438;-58
2023/03/30 07:38:23;;;;;;;0.80;0.80;;;18.20;44.20;;;;;;5015630;28;20445;-61
2023/03/30 07:40:49;;;;;;;1.20;1.10;;;18.20;44.20;;;;;;5017591;28;20245;-59
2023/03/30 07:43:14;;;;;;;1.10;1.00;;;18.20;44.20;;;;;;5017070;28;20909;-66
2023/03/30 07:45:40;;;;;;;1.17;0.97;;;18.20;44.20;;;;;;5012566;28;20231;-59
2023/03/30 07:48:06;;;;;;;1.10;1.00;;;18.20;44.30;;;;;;5012325;28;20874;-58
2023/03/30 07:50:32;;;;;;;1.23;1.00;;;18.20;44.20;;;;;;5013866;28;20231;-62
2023/03/30 07:52:58;;;;;;;1.10;0.83;;;18.20;44.20;;;;;;5015633;28;20227;-61
2023/03/30 07:55:23;;;;;;;1.00;0.90;;;18.20;44.20;;;;;;5016068;28;20471;-61
2023/03/30 07:57:49;;;;;;;1.10;1.00;;;18.20;44.20;;;;;;5017564;28;20336;-58
2023/03/30 08:00:15;;;;;;;0.90;0.90;;;18.20;44.20;;;;;;5013031;28;20215;-62
2023/03/30 08:02:41;;;;;;;1.10;1.00;;;18.20;44.20;;;;;;5014187;28;20710;-60
2023/03/30 08:05:08;;;;;;;0.87;0.80;;;18.20;44.20;;;;;;5016176;28;20513;-59
2023/03/30 08:07:34;;;;;;;1.40;1.00;;;18.20;44.30;;;;;;5016907;28;20254;-66
2023/03/30 08:10:00;;;;;;;1.00;0.90;;;18.20;44.20;;;;;;5015880;28;20930;-63
2023/03/30 08:12:26;;;;;;;1.10;1.03;;;18.20;44.20;;;;;;5018332;28;20463;-61
2023/03/30 08:14:52;;;;;;;1.50;1.30;;;18.20;44.20;;;;;;5020536;28;20434;-62
2023/03/30 08:17:18;;;;;;;1.00;0.80;;;18.20;44.20;;;;;;5017072;28;20223;-64
2023/03/30 08:19:43;;;;;;;1.07;0.97;;;18.20;44.20;;;;;;5012822;28;20457;-63
2023/03/30 08:22:09;;;;;;;1.03;0.73;;;18.20;44.30;;;;;;5018518;28;20443;-60
2023/03/30 08:24:35;;;;;;;1.10;1.00;;;18.20;44.20;;;;;;5018633;28;20337;-64
2023/03/30 08:27:00;;;;;;;0.90;0.80;;;18.20;44.30;;;;;;5018019;28;20215;-61
2023/03/30 08:29:26;;;;;;;1.23;0.83;;;18.20;44.30;;;;;;5017769;28;20246;-60
2023/03/30 08:31:51;;;;;;;1.00;0.90;;;18.20;44.20;;;;;;5012946;28;20223;-60
2023/03/30 08:34:18;;;;;;;1.00;0.90;;;18.20;44.30;;;;;;5021321;28;20238;-60
2023/03/30 08:36:43;;;;;;;1.27;1.00;;;18.20;44.30;;;;;;5018292;28;20706;-68
2023/03/30 08:39:09;;;;;;;1.83;1.10;;;18.20;44.20;;;;;;5016655;28;20435;-59
2023/03/30 08:42:04;;;;;;;1.00;0.90;;;18.20;44.20;;;;;;5017582;28;20258;-63
2023/03/30 08:44:40;;;;;;;0.97;0.87;;;18.20;44.20;;;;;;4982630;28;20532;-63
2023/03/30 08:47:12;;;;;;;0.80;0.80;;;18.20;44.30;;;;;;5020384;28;20435;-59
2023/03/30 08:49:42;;;;;;;0.87;0.80;;;18.20;44.30;;;;;;5017622;28;21050;-62
2023/03/30 08:52:16;;;;;;;1.00;0.90;;;18.20;44.30;;;;;;5018867;28;20444;-59
2023/03/30 08:54:42;;;;;;;1.20;1.00;;;18.20;44.30;;;;;;5016581;28;20519;-61
2023/03/30 08:57:17;;;;;;;1.10;1.00;;;18.20;44.30;;;;;;5018359;28;20435;-62
2023/03/30 09:00:18;;;;;;;1.20;0.90;;;18.20;44.30;;;;;;5018181;28;20233;-58
2023/03/30 09:02:51;;;;;;;1.00;0.90;;;18.20;44.30;;;;;;5013903;28;20450;-60
2023/03/30 09:05:33;;;;;;;1.10;1.00;;;18.20;44.30;;;;;;5015616;28;20442;-59
2023/03/30 09:08:27;;;;;;;1.00;0.80;;;18.20;44.30;;;;;;5013764;28;20532;-61
2023/03/30 09:10:58;;;;;;;1.10;1.00;;;18.20;44.30;;;;;;5014413;28;20459;-63
2023/03/30 09:13:34;;;;;;;1.20;1.00;;;18.20;44.30;;;;;;5013747;28;21525;-61
2023/03/30 09:16:08;;;;;;;1.00;0.90;;;18.20;44.30;;;;;;5013868;28;20431;-59
2023/03/30 09:18:36;;;;;;;1.20;1.10;;;18.20;44.30;;;;;;5013185;28;20479;-60
2023/03/30 09:21:04;;;;;;;0.83;0.80;;;18.20;44.30;;;;;;5011599;28;20438;-58
2023/03/30 09:23:31;;;;;;;1.67;0.90;;;18.20;44.30;;;;;;5015644;28;20751;-65
2023/03/30 09:26:15;;;;;;;1.13;1.03;;;18.20;44.30;;;;;;5014827;28;20515;-59
2023/03/30 09:29:04;;;;;;;0.80;0.80;;;18.20;44.30;;;;;;5010993;28;20438;-59
2023/03/30 09:31:46;;;;;;;1.00;0.90;;;18.20;45.10;;;;;;5013461;28;20591;-59
2023/03/30 09:34:26;;;;;;;0.97;0.90;;;18.20;44.30;;;;;;5014181;28;20442;-59
2023/03/30 09:37:30;;;;;;;1.53;0.83;;;18.20;44.30;;;;;;5010556;28;20522;-63
2023/03/30 09:39:57;;;;;;;1.20;1.00;;;18.20;44.30;;;;;;4955812;28;20568;-64
2023/03/30 09:42:38;;;;;;;1.43;0.87;;;18.20;44.30;;;;;;4960456;28;20458;-64
2023/03/30 09:45:13;;;;;;;1.10;1.00;;;18.20;44.30;;;;;;4991209;28;20475;-66
2023/03/30 09:47:41;;;;;;;1.10;1.00;;;18.20;44.30;;;;;;5014780;28;20453;-62
2023/03/30 09:50:15;;;;;;;1.00;0.87;;;18.20;44.40;;;;;;5016516;28;20909;-62
2023/03/30 09:52:58;;;;;;;1.00;0.87;;;18.20;44.40;;;;;;5017443;28;20460;-59
2023/03/30 09:55:29;;;;;;;0.90;0.80;;;18.20;44.30;;;;;;5015217;28;20463;-61
2023/03/30 09:58:16;;;;;;;1.07;0.90;;;18.20;44.30;;;;;;5014852;28;20468;-61
2023/03/30 10:00:42;;;;;;;0.80;0.80;;;18.20;44.30;;;;;;5017419;28;21019;-64
2023/03/30 10:03:19;;;;;;;1.03;0.93;;;18.20;44.30;;;;;;5014059;28;20460;-61
2023/03/30 10:05:58;;;;;;;0.80;0.80;;;18.20;44.40;;;;;;5015844;28;20765;-66
2023/03/30 10:08:24;;;;;;;1.00;0.90;;;18.20;44.30;;;;;;5010189;28;20439;-64
2023/03/30 10:10:53;;;;;;;1.13;0.90;;;18.20;44.40;;;;;;5014298;28;20985;-58
2023/03/30 10:13:27;;;;;;;0.80;0.80;;;18.20;44.40;;;;;;5011950;28;20288;-64
2023/03/30 10:15:53;;;;;;;1.00;0.90;;;18.20;44.40;;;;;;5015974;28;20516;-62
2023/03/30 10:18:38;;;;;;;0.93;0.80;;;18.20;44.40;;;;;;5016568;28;20427;-62
2023/03/30 10:21:17;;;;;;;0.90;0.70;;;18.20;44.30;;;;;;5016593;28;21029;-63
2023/03/30 10:23:46;;;;;;;0.80;0.80;;;18.20;44.40;;;;;;5013921;28;20456;-58
2023/03/30 10:26:20;;;;;;;1.07;0.70;;;18.20;44.30;;;;;;5015764;28;20491;-65
2023/03/30 10:28:59;;;;;;;0.83;0.80;;;18.20;44.40;;;;;;5016234;28;20458;-67
2023/03/30 10:31:26;;;;;;;1.30;0.90;;;18.20;44.40;;;;;;5016440;28;20474;-59
2023/03/30 10:33:58;;;;;;;0.80;0.80;;;18.20;44.40;;;;;;5013999;28;20471;-60
2023/03/30 10:36:29;;;;;;;1.10;1.00;;;18.20;44.40;;;;;;5016359;28;20451;-68
2023/03/30 10:39:03;;;;;;;1.43;0.93;;;18.20;44.40;;;;;;5015336;28;20468;-59
2023/03/30 10:41:29;;;;;;;0.70;0.70;;;18.20;44.40;;;;;;5016887;28;20434;-70
2023/03/30 10:43:55;;;;;;;0.77;0.77;;;18.20;44.40;;;;;;5016438;28;20455;-60
2023/03/30 10:46:22;;;;;;;0.80;0.70;;;18.20;44.40;;;;;;5015963;28;21189;-61
2023/03/30 10:49:11;;;;;;;0.93;0.70;;;18.20;44.40;;;;;;5013513;28;20280;-59
2023/03/30 10:51:51;;;;;;;0.90;0.80;;;18.20;44.40;;;;;;5017462;28;20454;-61
2023/03/30 10:54:38;;;;;;;1.13;0.93;;;18.20;44.40;;;;;;5013923;28;20496;-60
2023/03/30 10:57:14;;;;;;;1.10;0.80;;;18.20;44.40;;;;;;5013262;28;20438;-60
2023/03/30 11:00:22;;;;;;;0.90;0.80;;;18.20;44.40;;;;;;5013536;28;20455;-60
2023/03/30 11:03:11;;;;;;;0.77;0.70;;;18.20;44.30;;;;;;5003249;28;20535;-62
2023/03/30 11:05:41;;;;;;;1.07;0.80;;;18.20;44.30;;;;;;5012244;28;20537;-60
2023/03/30 11:08:13;;;;;;;1.10;1.00;;;18.20;44.40;;;;;;5014351;28;21003;-59
2023/03/30 11:10:44;;;;;;;0.70;0.70;;;18.20;44.40;;;;;;5016867;28;20611;-65
2023/03/30 11:13:16;;;;;;;0.73;0.73;;;18.20;44.40;;;;;;5012253;28;20470;-67
2023/03/30 11:15:48;;;;;;;0.83;0.80;;;18.20;44.40;;;;;;5015452;28;20959;-61
2023/03/30 11:18:20;;;;;;;1.07;0.90;;;18.20;44.40;;;;;;5012179;28;20449;-63
2023/03/30 11:21:04;;;;;;;4.93;1.20;;;18.20;44.30;;;;;;5015245;28;20426;-60
2023/03/30 11:23:48;;;;;;;2.70;1.10;;;18.20;45.10;;;;;;5014375;28;20525;-61
2023/03/30 11:26:21;;;;;;;0.90;0.80;;;18.30;44.40;;;;;;5014566;28;20468;-62
2023/03/30 11:28:56;;;;;;;0.90;0.80;;;18.20;44.30;;;;;;5014411;28;20990;-66
2023/03/30 11:31:52;;;;;;;1.77;1.67;;;18.30;44.50;;;;;;5012563;28;20474;-65
2023/03/30 11:34:34;;;;;;;1.00;0.90;;;18.20;44.30;;;;;;5016445;28;20451;-65
2023/03/30 11:37:10;;;;;;;0.90;0.67;;;18.30;44.50;;;;;;5011078;28;21231;-65
2023/03/30 11:39:40;;;;;;;1.17;0.80;;;18.30;44.50;;;;;;5015394;28;20441;-65
2023/03/30 11:42:20;;;;;;;0.80;0.77;;;18.20;44.30;;;;;;5014708;28;20459;-63
2023/03/30 11:44:45;;;;;;;0.80;0.73;;;18.30;44.30;;;;;;5018677;28;21010;-67
2023/03/30 11:47:26;;;;;;;0.97;0.83;;;18.30;44.30;;;;;;5015733;28;20454;-61
2023/03/30 11:50:29;;;;;;;1.00;0.90;;;18.30;44.30;;;;;;5019185;28;20234;-59
2023/03/30 11:53:27;;;;;;;0.77;0.70;;;18.30;44.30;;;;;;5019257;28;20475;-66
2023/03/30 11:56:00;;;;;;;0.90;0.80;;;18.30;44.30;;;;;;5014484;28;20982;-62
2023/03/30 11:58:35;;;;;;;0.70;0.70;;;18.30;44.40;;;;;;5018496;28;20477;-60
2023/03/30 12:01:03;;;;;;;0.70;0.70;;;18.30;44.40;;;;;;5021859;28;20454;-59
2023/03/30 12:03:41;;;;;;;1.10;0.80;;;18.30;44.40;;;;;;5015845;28;20511;-59
2023/03/30 12:06:27;;;;;;;0.80;0.73;;;18.30;44.30;;;;;;5019194;28;20505;-62
2023/03/30 12:09:09;;;;;;;0.80;0.73;;;18.30;44.30;;;;;;5017439;28;20434;-61
2023/03/30 12:11:44;;;;;;;0.70;0.70;;;18.30;44.30;;;;;;5018851;28;20885;-58
2023/03/30 12:14:41;;;;;;;1.30;0.80;;;18.30;44.30;;;;;;5015023;28;20486;-59
2023/03/30 12:17:10;;;;;;;0.80;0.70;;;18.30;44.30;;;;;;5017361;28;20471;-58
2023/03/30 12:20:14;;;;;;;0.70;0.70;;;18.30;44.40;;;;;;5016835;28;21031;-60
2023/03/30 12:23:01;;;;;;;0.80;0.70;;;18.30;44.30;;;;;;5013496;28;20464;-60
2023/03/30 12:25:33;;;;;;;0.90;0.70;;;18.30;44.40;;;;;;5018351;28;20531;-63
2023/03/30 12:28:15;;;;;;;1.33;0.80;;;18.30;44.40;;;;;;5014053;28;20811;-59
2023/03/30 12:30:47;;;;;;;0.80;0.80;;;18.30;44.30;;;;;;5018564;28;20434;-64
2023/03/30 12:33:43;;;;;;;0.70;0.70;;;18.30;44.40;;;;;;5017165;28;20434;-59
2023/03/30 12:36:24;;;;;;;0.70;0.70;;;18.30;44.30;;;;;;5017716;28;20496;-63
2023/03/30 12:38:56;;;;;;;0.80;0.70;;;18.30;44.30;;;;;;5015797;28;20987;-59
2023/03/30 12:41:25;;;;;;;0.80;0.70;;;18.30;44.40;;;;;;5017530;28;20508;-62
2023/03/30 12:44:13;;;;;;;0.87;0.80;;;18.30;44.30;;;;;;5019599;28;20847;-70
2023/03/30 12:47:11;;;;;;;0.90;0.70;;;18.30;44.30;;;;;;5011405;28;20573;-66
2023/03/30 12:49:42;;;;;;;0.80;0.80;;;18.30;44.30;;;;;;5018196;28;20541;-64
2023/03/30 12:52:23;;;;;;;0.90;0.80;;;18.30;44.30;;;;;;5017392;28;20503;-59
2023/03/30 12:55:21;;;;;;;0.70;0.60;;;18.30;44.30;;;;;;5021424;28;20459;-62
2023/03/30 12:57:52;;;;;;;0.63;0.63;;;18.30;44.30;;;;;;5009665;28;20717;-63
2023/03/30 13:00:18;;;;;;;0.60;0.50;;;18.30;44.30;;;;;;5016159;28;20470;-65
2023/03/30 13:03:00;;;;;;;0.80;0.70;;;18.30;44.40;;;;;;5018802;28;20996;-65
2023/03/30 13:05:35;;;;;;;0.80;0.70;;;18.30;44.30;;;;;;5012246;28;20264;-61
2023/03/30 13:08:07;;;;;;;0.90;0.70;;;18.20;44.30;;;;;;5016771;28;20993;-59
2023/03/30 13:10:38;;;;;;;1.10;0.80;;;18.30;44.40;;;;;;5019044;28;20422;-65